sensor_id;sensor_type;location;lat;lon;timestamp;temperature;humidity
11619;DHT22;5865;48.776;9.280;2023-02-15T00:01:36;-2.30;99.90
11619;DHT22;5865;48.776;9.280;2023-02-15T00:04:04;-2.10;99.90
11619;DHT22;5865;48.776;9.280;2023-02-15T00:14:13;-2.50;99.90
11619;DHT22;5865;48.776;9.280;2023-02-15T00:16:43;-2.50;99.90
11619;DHT22;5865;48.776;9.280;2023-02-15T00:19:12;-2.70;99.90
11619;DHT22;5865;48.776;9.280;2023-02-15T00:24:11;-2.60;99.90
11619;DHT22;5865;48.776;9.280;2023-02-15T00:29:06;-3.10;99.90
11619;DHT22;5865;48.776;9.280;2023-02-15T00:31:34;-2.70;99.90
11619;DHT22;5865;48.776;9.280;2023-02-15T00:34:05;-2.70;99.90
11619;DHT22;5865;48.776;9.280;2023-02-15T00:51:20;-2.70;99.90
11619;DHT22;5865;48.776;9.280;2023-02-15T01:01:11;-2.60;99.90
11619;DHT22;5865;48.776;9.280;2023-02-15T01:06:09;-2.70;99.90
11619;DHT22;5865;48.776;9.280;2023-02-15T01:08:38;-2.50;99.90
11619;DHT22;5865;48.776;9.280;2023-02-15T01:11:09;-2.30;99.90
11619;DHT22;5865;48.776;9.280;2023-02-15T01:16:05;-2.60;99.90
11619;DHT22;5865;48.776;9.280;2023-02-15T01:18:32;-2.80;99.90
11619;DHT22;5865;48.776;9.280;2023-02-15T01:21:00;-3.00;99.90
11619;DHT22;5865;48.776;9.280;2023-02-15T01:26:01;-2.90;99.90
11619;DHT22;5865;48.776;9.280;2023-02-15T01:35:56;-3.10;99.90
11619;DHT22;5865;48.776;9.280;2023-02-15T01:38:24;-3.10;99.90
11619;DHT22;5865;48.776;9.280;2023-02-15T01:43:21;-3.00;99.90
11619;DHT22;5865;48.776;9.280;2023-02-15T01:45:49;-3.20;99.90
11619;DHT22;5865;48.776;9.280;2023-02-15T01:48:19;-3.20;99.90
11619;DHT22;5865;48.776;9.280;2023-02-15T01:50:51;-3.10;99.90
11619;DHT22;5865;48.776;9.280;2023-02-15T01:53:23;-3.30;99.90
11619;DHT22;5865;48.776;9.280;2023-02-15T01:55:55;-3.00;99.90
11619;DHT22;5865;48.776;9.280;2023-02-15T01:58:26;-3.10;99.90
11619;DHT22;5865;48.776;9.280;2023-02-15T02:00:56;-2.80;99.90
11619;DHT22;5865;48.776;9.280;2023-02-15T02:03:30;-2.90;99.90
11619;DHT22;5865;48.776;9.280;2023-02-15T02:13:27;-2.50;99.90
11619;DHT22;5865;48.776;9.280;2023-02-15T02:15:58;-2.70;99.90
11619;DHT22;5865;48.776;9.280;2023-02-15T02:18:35;-3.00;99.90
11619;DHT22;5865;48.776;9.280;2023-02-15T02:21:45;-3.00;99.90
11619;DHT22;5865;48.776;9.280;2023-02-15T02:27:18;-3.20;99.90
11619;DHT22;5865;48.776;9.280;2023-02-15T02:33:12;-3.30;99.90
11619;DHT22;5865;48.776;9.280;2023-02-15T02:35:51;-3.30;99.90
11619;DHT22;5865;48.776;9.280;2023-02-15T02:38:26;-3.20;99.90
11619;DHT22;5865;48.776;9.280;2023-02-15T02:41:06;-3.00;99.90
11619;DHT22;5865;48.776;9.280;2023-02-15T02:46:10;-2.90;99.90
11619;DHT22;5865;48.776;9.280;2023-02-15T02:48:41;-2.90;99.90
11619;DHT22;5865;48.776;9.280;2023-02-15T02:51:11;-3.00;99.90
11619;DHT22;5865;48.776;9.280;2023-02-15T02:56:18;-3.00;99.90
11619;DHT22;5865;48.776;9.280;2023-02-15T02:58:50;-3.10;99.90
11619;DHT22;5865;48.776;9.280;2023-02-15T03:01:24;-3.10;99.90
11619;DHT22;5865;48.776;9.280;2023-02-15T03:03:58;-3.10;99.90
11619;DHT22;5865;48.776;9.280;2023-02-15T03:06:33;-3.10;99.90
11619;DHT22;5865;48.776;9.280;2023-02-15T03:09:08;-3.10;99.90
11619;DHT22;5865;48.776;9.280;2023-02-15T03:11:43;-3.10;99.90
11619;DHT22;5865;48.776;9.280;2023-02-15T03:14:14;-3.20;99.90
11619;DHT22;5865;48.776;9.280;2023-02-15T03:19:17;-3.40;99.90
11619;DHT22;5865;48.776;9.280;2023-02-15T03:21:47;-3.20;99.90
11619;DHT22;5865;48.776;9.280;2023-02-15T03:24:25;-3.30;99.90
11619;DHT22;5865;48.776;9.280;2023-02-15T03:26:55;-3.30;99.90
11619;DHT22;5865;48.776;9.280;2023-02-15T03:29:25;-3.30;99.90
11619;DHT22;5865;48.776;9.280;2023-02-15T03:31:56;-3.30;99.90
11619;DHT22;5865;48.776;9.280;2023-02-15T03:34:26;-3.30;99.90
11619;DHT22;5865;48.776;9.280;2023-02-15T03:36:58;-3.30;99.90
11619;DHT22;5865;48.776;9.280;2023-02-15T03:39:31;-3.20;99.90
11619;DHT22;5865;48.776;9.280;2023-02-15T03:42:06;-3.10;99.90
11619;DHT22;5865;48.776;9.280;2023-02-15T03:44:39;-3.00;99.90
11619;DHT22;5865;48.776;9.280;2023-02-15T03:47:11;-3.20;99.90
11619;DHT22;5865;48.776;9.280;2023-02-15T03:49:45;-3.20;99.90
11619;DHT22;5865;48.776;9.280;2023-02-15T03:52:16;-3.20;99.90
11619;DHT22;5865;48.776;9.280;2023-02-15T03:54:43;-3.30;99.90
11619;DHT22;5865;48.776;9.280;2023-02-15T03:57:14;-3.40;99.90
11619;DHT22;5865;48.776;9.280;2023-02-15T03:59:59;-3.40;99.90
11619;DHT22;5865;48.776;9.280;2023-02-15T04:02:57;-3.60;99.90
11619;DHT22;5865;48.776;9.280;2023-02-15T04:05:27;-3.70;99.90
11619;DHT22;5865;48.776;9.280;2023-02-15T04:18:19;-3.90;99.90
11619;DHT22;5865;48.776;9.280;2023-02-15T04:20:48;-3.60;99.90
11619;DHT22;5865;48.776;9.280;2023-02-15T04:23:32;-3.70;99.90
11619;DHT22;5865;48.776;9.280;2023-02-15T04:26:17;-3.50;99.90
11619;DHT22;5865;48.776;9.280;2023-02-15T04:31:11;-3.70;99.90
11619;DHT22;5865;48.776;9.280;2023-02-15T04:33:39;-3.80;99.90
11619;DHT22;5865;48.776;9.280;2023-02-15T04:43:30;-3.60;99.90
11619;DHT22;5865;48.776;9.280;2023-02-15T04:53:21;-3.90;99.90
11619;DHT22;5865;48.776;9.280;2023-02-15T05:05:39;-3.20;99.90
11619;DHT22;5865;48.776;9.280;2023-02-15T05:08:06;-3.30;99.90
11619;DHT22;5865;48.776;9.280;2023-02-15T05:10:35;-3.40;99.90
11619;DHT22;5865;48.776;9.280;2023-02-15T05:15:29;-3.70;99.90
11619;DHT22;5865;48.776;9.280;2023-02-15T05:20:23;-3.50;99.90
11619;DHT22;5865;48.776;9.280;2023-02-15T05:22:53;-3.80;99.90
11619;DHT22;5865;48.776;9.280;2023-02-15T05:28:08;-3.70;99.90
11619;DHT22;5865;48.776;9.280;2023-02-15T05:55:37;-4.10;99.90
11619;DHT22;5865;48.776;9.280;2023-02-15T05:58:05;-4.10;99.90
11619;DHT22;5865;48.776;9.280;2023-02-15T06:03:01;-4.30;99.90
11619;DHT22;5865;48.776;9.280;2023-02-15T06:17:46;-4.20;99.90
11619;DHT22;5865;48.776;9.280;2023-02-15T06:22:40;-3.90;99.90
11619;DHT22;5865;48.776;9.280;2023-02-15T06:30:08;-3.70;99.90
11619;DHT22;5865;48.776;9.280;2023-02-15T06:39:59;-4.30;99.90
11619;DHT22;5865;48.776;9.280;2023-02-15T06:42:26;-4.40;99.90
11619;DHT22;5865;48.776;9.280;2023-02-15T06:49:48;-4.20;99.90
11619;DHT22;5865;48.776;9.280;2023-02-15T10:03:15;2.30;99.90
11619;DHT22;5865;48.776;9.280;2023-02-15T10:08:53;2.50;99.90
11619;DHT22;5865;48.776;9.280;2023-02-15T10:11:26;2.80;99.90
11619;DHT22;5865;48.776;9.280;2023-02-15T10:17:06;3.20;99.90
11619;DHT22;5865;48.776;9.280;2023-02-15T10:19:43;3.40;99.90
11619;DHT22;5865;48.776;9.280;2023-02-15T10:22:23;3.60;99.90
11619;DHT22;5865;48.776;9.280;2023-02-15T10:25:18;3.50;99.90
11619;DHT22;5865;48.776;9.280;2023-02-15T10:27:48;3.90;99.90
11619;DHT22;5865;48.776;9.280;2023-02-15T10:35:22;4.40;99.90
11619;DHT22;5865;48.776;9.280;2023-02-15T10:40:30;5.00;99.90
11619;DHT22;5865;48.776;9.280;2023-02-15T10:43:20;5.30;99.90
11619;DHT22;5865;48.776;9.280;2023-02-15T10:45:57;5.60;99.90
11619;DHT22;5865;48.776;9.280;2023-02-15T10:49:00;5.50;99.90
11619;DHT22;5865;48.776;9.280;2023-02-15T10:51:40;5.80;99.90
11619;DHT22;5865;48.776;9.280;2023-02-15T10:54:21;5.90;99.90
11619;DHT22;5865;48.776;9.280;2023-02-15T10:57:02;5.90;99.90
11619;DHT22;5865;48.776;9.280;2023-02-15T10:59:40;6.20;99.90
11619;DHT22;5865;48.776;9.280;2023-02-15T11:04:50;6.70;99.90
11619;DHT22;5865;48.776;9.280;2023-02-15T11:07:23;7.20;99.90
11619;DHT22;5865;48.776;9.280;2023-02-15T11:09:53;7.60;99.90
11619;DHT22;5865;48.776;9.280;2023-02-15T11:14:56;7.90;99.90
11619;DHT22;5865;48.776;9.280;2023-02-15T11:22:28;8.00;99.90
11619;DHT22;5865;48.776;9.280;2023-02-15T11:24:58;8.10;99.90
11619;DHT22;5865;48.776;9.280;2023-02-15T11:27:29;8.40;99.90
11619;DHT22;5865;48.776;9.280;2023-02-15T11:30:01;8.20;99.90
11619;DHT22;5865;48.776;9.280;2023-02-15T11:32:31;8.30;99.90
11619;DHT22;5865;48.776;9.280;2023-02-15T11:40:02;9.10;99.90
11619;DHT22;5865;48.776;9.280;2023-02-15T11:42:31;9.20;99.90
11619;DHT22;5865;48.776;9.280;2023-02-15T11:45:04;9.10;99.90
11619;DHT22;5865;48.776;9.280;2023-02-15T11:52:32;8.40;99.90
11619;DHT22;5865;48.776;9.280;2023-02-15T11:55:00;8.40;99.90
11619;DHT22;5865;48.776;9.280;2023-02-15T12:02:54;8.60;99.90
11619;DHT22;5865;48.776;9.280;2023-02-15T12:07:57;8.50;99.90
11619;DHT22;5865;48.776;9.280;2023-02-15T12:10:31;8.60;99.90
11619;DHT22;5865;48.776;9.280;2023-02-15T12:13:11;8.80;99.90
11619;DHT22;5865;48.776;9.280;2023-02-15T12:15:41;8.90;99.90
11619;DHT22;5865;48.776;9.280;2023-02-15T12:18:19;9.00;99.90
11619;DHT22;5865;48.776;9.280;2023-02-15T12:23:16;8.70;99.90
11619;DHT22;5865;48.776;9.280;2023-02-15T12:25:50;8.60;99.90
11619;DHT22;5865;48.776;9.280;2023-02-15T12:33:26;8.90;99.90
11619;DHT22;5865;48.776;9.280;2023-02-15T12:38:28;9.00;99.90
11619;DHT22;5865;48.776;9.280;2023-02-15T12:46:20;8.90;99.90
11619;DHT22;5865;48.776;9.280;2023-02-15T12:51:15;9.00;99.90
11619;DHT22;5865;48.776;9.280;2023-02-15T13:28:44;9.30;99.90
11619;DHT22;5865;48.776;9.280;2023-02-15T13:31:24;9.30;99.90
11619;DHT22;5865;48.776;9.280;2023-02-15T13:34:01;9.40;99.90
11619;DHT22;5865;48.776;9.280;2023-02-15T13:36:41;9.60;99.90
11619;DHT22;5865;48.776;9.280;2023-02-15T14:31:34;18.40;73.40
11619;DHT22;5865;48.776;9.280;2023-02-15T14:34:02;19.00;73.30
11619;DHT22;5865;48.776;9.280;2023-02-15T14:36:30;19.10;70.30
11619;DHT22;5865;48.776;9.280;2023-02-15T14:39:07;18.70;69.40
11619;DHT22;5865;48.776;9.280;2023-02-15T14:42:01;19.00;70.70
11619;DHT22;5865;48.776;9.280;2023-02-15T14:44:32;18.80;69.20
11619;DHT22;5865;48.776;9.280;2023-02-15T14:47:05;18.80;69.40
11619;DHT22;5865;48.776;9.280;2023-02-15T14:49:36;18.80;69.10
11619;DHT22;5865;48.776;9.280;2023-02-15T14:52:04;18.40;70.10
11619;DHT22;5865;48.776;9.280;2023-02-15T14:54:55;18.60;70.20
11619;DHT22;5865;48.776;9.280;2023-02-15T14:57:31;19.30;70.80
11619;DHT22;5865;48.776;9.280;2023-02-15T15:00:00;19.20;70.00
11619;DHT22;5865;48.776;9.280;2023-02-15T15:02:43;19.50;67.80
11619;DHT22;5865;48.776;9.280;2023-02-15T15:05:17;19.60;65.90
11619;DHT22;5865;48.776;9.280;2023-02-15T15:07:47;19.60;65.80
11619;DHT22;5865;48.776;9.280;2023-02-15T15:10:37;17.50;68.00
11619;DHT22;5865;48.776;9.280;2023-02-15T15:13:38;17.00;68.90
11619;DHT22;5865;48.776;9.280;2023-02-15T15:19:02;19.20;66.30
11619;DHT22;5865;48.776;9.280;2023-02-15T15:21:52;20.10;64.50
11619;DHT22;5865;48.776;9.280;2023-02-15T15:24:49;19.90;64.70
11619;DHT22;5865;48.776;9.280;2023-02-15T15:27:47;20.40;65.50
11619;DHT22;5865;48.776;9.280;2023-02-15T15:34:20;21.50;60.30
11619;DHT22;5865;48.776;9.280;2023-02-15T15:46:40;20.80;57.00
11619;DHT22;5865;48.776;9.280;2023-02-15T15:49:10;19.50;58.10
11619;DHT22;5865;48.776;9.280;2023-02-15T15:51:41;17.80;61.60
11619;DHT22;5865;48.776;9.280;2023-02-15T15:54:15;15.60;66.30
11619;DHT22;5865;48.776;9.280;2023-02-15T15:56:46;14.20;72.10
11619;DHT22;5865;48.776;9.280;2023-02-15T15:59:18;12.80;78.30
11619;DHT22;5865;48.776;9.280;2023-02-15T16:01:46;12.00;85.60
11619;DHT22;5865;48.776;9.280;2023-02-15T16:04:25;11.10;91.10
11619;DHT22;5865;48.776;9.280;2023-02-15T16:06:54;10.50;94.10
11619;DHT22;5865;48.776;9.280;2023-02-15T16:09:23;9.80;97.10
11619;DHT22;5865;48.776;9.280;2023-02-15T16:11:52;9.30;99.90
11619;DHT22;5865;48.776;9.280;2023-02-15T16:14:26;8.80;99.90
11619;DHT22;5865;48.776;9.280;2023-02-15T16:16:56;8.60;99.90
11619;DHT22;5865;48.776;9.280;2023-02-15T16:19:26;8.30;99.90
11619;DHT22;5865;48.776;9.280;2023-02-15T16:21:58;9.80;99.90
11619;DHT22;5865;48.776;9.280;2023-02-15T16:24:38;7.90;99.90
11619;DHT22;5865;48.776;9.280;2023-02-15T16:27:31;7.50;99.90
11619;DHT22;5865;48.776;9.280;2023-02-15T16:30:26;7.00;99.90
11619;DHT22;5865;48.776;9.280;2023-02-15T16:33:03;6.80;99.90
11619;DHT22;5865;48.776;9.280;2023-02-15T16:35:31;6.50;99.90
11619;DHT22;5865;48.776;9.280;2023-02-15T16:37:59;6.40;99.90
11619;DHT22;5865;48.776;9.280;2023-02-15T16:40:41;6.20;99.90
11619;DHT22;5865;48.776;9.280;2023-02-15T16:43:15;5.80;99.90
11619;DHT22;5865;48.776;9.280;2023-02-15T16:48:14;5.30;99.90
11619;DHT22;5865;48.776;9.280;2023-02-15T16:50:48;5.20;99.90
11619;DHT22;5865;48.776;9.280;2023-02-15T16:53:21;4.90;99.90
11619;DHT22;5865;48.776;9.280;2023-02-15T16:55:51;4.80;99.90
11619;DHT22;5865;48.776;9.280;2023-02-15T16:58:25;4.50;99.90
11619;DHT22;5865;48.776;9.280;2023-02-15T17:00:57;4.30;99.90
11619;DHT22;5865;48.776;9.280;2023-02-15T17:03:25;4.50;99.90
11619;DHT22;5865;48.776;9.280;2023-02-15T17:05:54;4.00;99.90
11619;DHT22;5865;48.776;9.280;2023-02-15T17:08:27;3.80;99.90
11619;DHT22;5865;48.776;9.280;2023-02-15T17:11:10;3.50;99.90
11619;DHT22;5865;48.776;9.280;2023-02-15T17:13:39;3.40;99.90
11619;DHT22;5865;48.776;9.280;2023-02-15T17:16:25;3.30;99.90
11619;DHT22;5865;48.776;9.280;2023-02-15T17:18:53;3.10;99.90
11619;DHT22;5865;48.776;9.280;2023-02-15T17:21:26;2.80;99.90
11619;DHT22;5865;48.776;9.280;2023-02-15T17:23:58;2.80;99.90
11619;DHT22;5865;48.776;9.280;2023-02-15T17:26:30;2.80;99.90
11619;DHT22;5865;48.776;9.280;2023-02-15T17:28:59;2.80;99.90
11619;DHT22;5865;48.776;9.280;2023-02-15T17:31:30;2.60;99.90
11619;DHT22;5865;48.776;9.280;2023-02-15T17:33:59;2.50;99.90
11619;DHT22;5865;48.776;9.280;2023-02-15T17:36:27;2.60;99.90
11619;DHT22;5865;48.776;9.280;2023-02-15T17:39:06;2.40;99.90
11619;DHT22;5865;48.776;9.280;2023-02-15T17:41:35;2.20;99.90
11619;DHT22;5865;48.776;9.280;2023-02-15T17:44:03;-0.70;99.90
11619;DHT22;5865;48.776;9.280;2023-02-15T17:46:35;2.10;99.90
11619;DHT22;5865;48.776;9.280;2023-02-15T17:49:03;1.90;99.90
11619;DHT22;5865;48.776;9.280;2023-02-15T17:51:31;1.90;99.90
11619;DHT22;5865;48.776;9.280;2023-02-15T17:54:00;1.80;99.90
11619;DHT22;5865;48.776;9.280;2023-02-15T17:59:13;1.70;99.90
11619;DHT22;5865;48.776;9.280;2023-02-15T18:01:44;1.80;99.90
11619;DHT22;5865;48.776;9.280;2023-02-15T18:04:30;1.70;99.90
11619;DHT22;5865;48.776;9.280;2023-02-15T18:07:16;1.50;99.90
11619;DHT22;5865;48.776;9.280;2023-02-15T18:10:02;1.60;99.90
11619;DHT22;5865;48.776;9.280;2023-02-15T18:12:48;1.40;99.90
11619;DHT22;5865;48.776;9.280;2023-02-15T18:17:43;1.30;99.90
11619;DHT22;5865;48.776;9.280;2023-02-15T18:20:17;1.20;99.90
11619;DHT22;5865;48.776;9.280;2023-02-15T18:22:46;1.20;99.90
11619;DHT22;5865;48.776;9.280;2023-02-15T18:25:15;1.30;99.90
11619;DHT22;5865;48.776;9.280;2023-02-15T18:27:42;1.00;99.90
11619;DHT22;5865;48.776;9.280;2023-02-15T18:30:15;1.20;99.90
11619;DHT22;5865;48.776;9.280;2023-02-15T18:32:42;0.90;99.90
11619;DHT22;5865;48.776;9.280;2023-02-15T18:35:14;1.00;99.90
11619;DHT22;5865;48.776;9.280;2023-02-15T18:37:42;1.10;99.90
11619;DHT22;5865;48.776;9.280;2023-02-15T18:40:14;0.90;99.90
11619;DHT22;5865;48.776;9.280;2023-02-15T18:42:42;1.00;99.90
11619;DHT22;5865;48.776;9.280;2023-02-15T18:45:16;0.80;99.90
11619;DHT22;5865;48.776;9.280;2023-02-15T18:47:44;1.10;99.90
11619;DHT22;5865;48.776;9.280;2023-02-15T18:52:40;0.80;99.90
11619;DHT22;5865;48.776;9.280;2023-02-15T18:55:17;0.70;99.90
11619;DHT22;5865;48.776;9.280;2023-02-15T18:57:45;0.70;99.90
11619;DHT22;5865;48.776;9.280;2023-02-15T19:00:16;0.60;99.90
11619;DHT22;5865;48.776;9.280;2023-02-15T19:02:43;0.70;99.90
11619;DHT22;5865;48.776;9.280;2023-02-15T19:05:11;0.50;99.90
11619;DHT22;5865;48.776;9.280;2023-02-15T19:07:38;0.50;99.90
11619;DHT22;5865;48.776;9.280;2023-02-15T19:10:07;0.40;99.90
11619;DHT22;5865;48.776;9.280;2023-02-15T19:12:40;0.50;99.90
11619;DHT22;5865;48.776;9.280;2023-02-15T19:15:15;0.40;99.90
11619;DHT22;5865;48.776;9.280;2023-02-15T19:20:15;0.20;99.90
11619;DHT22;5865;48.776;9.280;2023-02-15T19:22:44;0.20;99.90
11619;DHT22;5865;48.776;9.280;2023-02-15T19:25:16;0.30;99.90
11619;DHT22;5865;48.776;9.280;2023-02-15T19:27:44;0.50;99.90
11619;DHT22;5865;48.776;9.280;2023-02-15T19:30:16;0.10;99.90
11619;DHT22;5865;48.776;9.280;2023-02-15T21:11:57;-0.40;99.90
